Time;durP1;ratioP1;P1;durP2;ratioP2;P2;SDS_P1;SDS_P2;PMS_P1;PMS_P2;Temp;Humidity;BMP_temperature;BMP_pressure;BME280_temperature;BME280_humidity;BME280_pressure;Samples;Min_cycle;Max_cycle;Signal;HPM_P1;HPM_P2
2021/11/09 00:02:20;;;;;;;7.58;4.30;;;;;;;7.29;81.65;100322.90;1713738;83;21047;-81
2021/11/09 00:04:54;;;;;;;6.33;3.55;;;;;;;7.29;82.17;100324.20;1711057;81;20959;-84
2021/11/09 00:10:03;;;;;;;7.15;4.15;;;;;;;7.30;83.71;100334.23;1722720;79;21739;-79
2021/11/09 00:12:36;;;;;;;7.40;4.30;;;;;;;7.30;83.52;100340.78;1721001;83;21066;-77
2021/11/09 00:15:06;;;;;;;8.50;4.40;;;;;;;7.27;83.28;100336.47;1721233;83;21050;-78
2021/11/09 00:17:32;;;;;;;9.68;4.37;;;;;;;7.24;84.03;100348.30;1691413;84;21015;-77
2021/11/09 00:19:59;;;;;;;9.15;4.15;;;;;;;7.21;84.49;100340.52;1691622;84;21066;-79
2021/11/09 00:22:26;;;;;;;6.90;4.17;;;;;;;7.18;84.87;100339.27;1692080;83;21537;-78
2021/11/09 00:24:53;;;;;;;9.80;4.67;;;;;;;7.15;85.37;100344.55;1690237;85;21310;-77
2021/11/09 00:27:20;;;;;;;8.08;5.35;;;;;;;7.12;87.06;100349.86;1688971;85;21617;-79
2021/11/09 00:29:47;;;;;;;7.15;4.50;;;;;;;7.08;89.31;100354.73;1688103;85;21022;-79
2021/11/09 00:32:16;;;;;;;7.95;3.50;;;;;;;7.03;90.62;100356.58;1687763;85;21141;-78
2021/11/09 00:34:44;;;;;;;3.30;2.60;;;;;;;6.96;92.40;100365.45;1687919;85;21111;-76
2021/11/09 00:37:11;;;;;;;5.03;2.90;;;;;;;6.83;94.20;100349.97;1687458;85;21513;-79
2021/11/09 00:39:37;;;;;;;3.42;2.30;;;;;;;6.73;94.85;100360.17;1687812;85;21054;-79
2021/11/09 00:42:05;;;;;;;4.00;2.33;;;;;;;6.65;96.46;100358.16;1687486;85;21075;-77
2021/11/09 00:44:32;;;;;;;4.55;2.20;;;;;;;6.60;98.18;100358.65;1687357;85;21529;-78
2021/11/09 00:46:58;;;;;;;3.83;2.40;;;;;;;6.54;99.62;100358.78;1687711;83;21557;-80
2021/11/09 00:49:25;;;;;;;4.47;2.17;;;;;;;6.46;100.00;100363.66;1687508;84;21031;-80
2021/11/09 00:51:52;;;;;;;3.47;2.02;;;;;;;6.39;100.00;100358.11;1687798;85;21582;-81
2021/11/09 00:54:18;;;;;;;3.27;2.33;;;;;;;6.32;100.00;100368.27;1687997;85;21091;-81
2021/11/09 00:56:45;;;;;;;3.22;2.08;;;;;;;6.28;100.00;100380.96;1687679;84;21266;-81
2021/11/09 00:59:12;;;;;;;4.25;2.60;;;;;;;6.26;100.00;100382.77;1687972;84;21115;-82
2021/11/09 01:01:40;;;;;;;3.05;1.75;;;;;;;6.20;100.00;100376.31;1707447;83;21042;-82
2021/11/09 01:04:07;;;;;;;2.45;1.98;;;;;;;6.17;100.00;100375.06;1707021;83;21042;-82
2021/11/09 01:06:36;;;;;;;4.85;2.62;;;;;;;6.08;100.00;100357.30;1652254;86;21576;-82
2021/11/09 01:09:04;;;;;;;3.22;1.80;;;;;;;6.09;100.00;100365.55;1688360;85;21560;-81
2021/11/09 01:11:30;;;;;;;3.20;2.00;;;;;;;6.08;100.00;100371.68;1708660;83;21137;-82
2021/11/09 01:13:57;;;;;;;2.60;1.92;;;;;;;6.05;100.00;100370.84;1716898;83;21573;-82
2021/11/09 01:16:23;;;;;;;3.25;1.85;;;;;;;6.04;100.00;100373.91;1716655;83;21047;-82
2021/11/09 01:18:53;;;;;;;2.83;2.25;;;;;;;6.03;100.00;100371.34;1716995;83;21043;-82
2021/11/09 01:21:20;;;;;;;4.25;2.75;;;;;;;6.03;100.00;100368.72;1718158;82;21077;-82
2021/11/09 01:23:51;;;;;;;3.17;2.10;;;;;;;6.00;100.00;100381.37;1719095;82;21169;-80
2021/11/09 01:26:18;;;;;;;3.58;2.52;;;;;;;5.98;100.00;100379.25;1718534;83;21109;-80
2021/11/09 01:28:47;;;;;;;3.75;2.00;;;;;;;5.97;100.00;100387.95;1718794;83;21104;-79
2021/11/09 01:31:14;;;;;;;4.43;2.27;;;;;;;5.94;100.00;100390.63;1718591;83;21085;-80
2021/11/09 01:33:41;;;;;;;5.00;2.70;;;;;;;5.92;100.00;100388.89;1718841;83;21093;-78
2021/11/09 01:36:08;;;;;;;4.08;2.80;;;;;;;5.88;100.00;100394.59;1718886;83;21098;-78
2021/11/09 01:38:36;;;;;;;4.28;2.75;;;;;;;5.84;100.00;100396.81;1718624;83;21066;-78
2021/11/09 01:41:04;;;;;;;4.50;2.58;;;;;;;5.82;100.00;100397.27;1718560;83;21101;-77
2021/11/09 01:43:32;;;;;;;5.05;2.50;;;;;;;5.80;100.00;100398.62;1718778;83;21158;-78
2021/11/09 01:45:58;;;;;;;4.83;3.00;;;;;;;5.81;100.00;100399.48;1718684;82;21046;-78
2021/11/09 01:48:24;;;;;;;6.22;2.90;;;;;;;5.80;100.00;100405.61;1718817;83;21878;-78
2021/11/09 01:50:58;;;;;;;5.95;3.05;;;;;;;5.81;100.00;100407.32;1718591;83;21093;-78
2021/11/09 01:53:26;;;;;;;5.03;2.95;;;;;;;5.81;100.00;100412.55;1718396;83;21098;-78
2021/11/09 01:55:52;;;;;;;6.00;2.98;;;;;;;5.82;100.00;100415.56;1718985;83;21533;-82
2021/11/09 01:58:19;;;;;;;5.05;3.08;;;;;;;5.82;100.00;100406.42;1718688;83;21233;-81
2021/11/09 02:00:50;;;;;;;4.28;2.85;;;;;;;5.81;100.00;100413.41;1719043;83;21566;-82
2021/11/09 02:03:18;;;;;;;4.67;2.42;;;;;;;5.82;100.00;100415.56;1718661;83;21535;-81
2021/11/09 02:05:44;;;;;;;6.50;2.85;;;;;;;5.80;100.00;100419.98;1739321;78;21046;-75
2021/11/09 02:08:11;;;;;;;3.55;2.10;;;;;;;5.80;100.00;100418.22;1761207;81;21033;-75
2021/11/09 02:10:41;;;;;;;5.05;2.70;;;;;;;5.77;100.00;100418.23;1760980;81;21579;-74
2021/11/09 02:13:08;;;;;;;3.43;2.30;;;;;;;5.78;100.00;100425.66;1761414;81;21103;-73
2021/11/09 02:15:35;;;;;;;3.55;2.25;;;;;;;5.74;100.00;100426.58;1761047;81;21032;-75
2021/11/09 02:18:04;;;;;;;5.37;2.45;;;;;;;5.74;100.00;100434.42;1761214;81;21052;-77
2021/11/09 02:20:30;;;;;;;6.62;2.80;;;;;;;5.73;100.00;100437.90;1761385;81;21044;-76
2021/11/09 02:22:57;;;;;;;5.40;2.67;;;;;;;5.71;100.00;100442.31;1761440;81;21485;-76
2021/11/09 02:25:25;;;;;;;2.98;2.05;;;;;;;5.68;100.00;100454.52;1761131;81;21107;-77
2021/11/09 02:27:52;;;;;;;5.28;2.60;;;;;;;5.64;100.00;100448.91;1761369;81;21004;-77
2021/11/09 02:30:23;;;;;;;3.00;2.22;;;;;;;5.62;100.00;100450.66;1761557;81;21029;-78
2021/11/09 02:35:04;;;;;;;2.52;1.60;;;;;;;5.59;100.00;100452.44;1812891;79;27921;-78
2021/11/09 02:37:31;;;;;;;2.80;1.77;;;;;;;5.46;100.00;100454.34;1771716;81;21552;-76
2021/11/09 02:39:59;;;;;;;1.72;1.45;;;;;;;5.40;100.00;100457.00;1771850;81;21879;-79
2021/11/09 02:42:37;;;;;;;2.12;1.30;;;;;;;5.33;100.00;100462.73;1771534;81;21064;-80
2021/11/09 02:45:11;;;;;;;2.85;1.22;;;;;;;5.24;100.00;100465.02;1766667;80;21102;-79
2021/11/09 02:47:55;;;;;;;1.30;1.20;;;;;;;5.15;100.00;100466.38;1753661;81;21123;-82
2021/11/09 02:50:20;;;;;;;2.08;1.20;;;;;;;5.04;100.00;100470.86;1753232;81;21612;-79
2021/11/09 02:55:20;;;;;;;1.20;1.00;;;;;;;4.82;99.66;100481.45;1695886;81;21062;-79
2021/11/09 03:00:28;;;;;;;2.08;0.93;;;;;;;4.66;98.40;100489.42;1731946;81;20198;-78
2021/11/09 03:03:06;;;;;;;1.30;0.95;;;;;;;4.56;98.24;100491.23;1754255;81;21038;-75
2021/11/09 03:05:32;;;;;;;3.70;1.17;;;;;;;4.47;98.68;100492.60;1752614;81;23036;-76
2021/11/09 03:08:17;;;;;;;2.55;1.17;;;;;;;4.38;99.90;100495.67;1754211;81;21066;-77
2021/11/09 03:10:37;;;;;;;1.30;0.80;;;;;;;4.33;99.71;100504.42;1752560;81;21094;-77
2021/11/09 03:13:03;;;;;;;1.60;1.12;;;;;;;4.23;99.33;100502.27;1756850;81;20980;-78
2021/11/09 03:15:33;;;;;;;1.32;0.93;;;;;;;4.15;99.33;100505.37;1756914;81;21023;-77
2021/11/09 03:18:12;;;;;;;1.33;0.80;;;;;;;4.05;99.24;100506.27;1772574;80;21146;-76
2021/11/09 03:20:35;;;;;;;1.42;0.90;;;;;;;3.97;99.80;100499.35;1781887;79;21072;-75
2021/11/09 03:45:11;;;;;;;3.50;1.67;;;;;;;3.25;100.00;100528.19;1768489;81;21538;-75
2021/11/09 03:47:40;;;;;;;1.75;1.37;;;;;;;3.19;100.00;100532.53;1767969;81;21081;-76
2021/11/09 03:50:08;;;;;;;2.10;1.40;;;;;;;3.14;100.00;100539.03;1767941;80;21046;-76
2021/11/09 03:52:52;;;;;;;3.72;1.60;;;;;;;3.11;100.00;100546.41;1768124;81;21051;-73
2021/11/09 03:55:25;;;;;;;3.20;1.35;;;;;;;3.11;100.00;100546.41;1767745;80;21057;-77
2021/11/09 03:57:53;;;;;;;3.37;1.60;;;;;;;3.12;100.00;100545.97;1767701;80;21131;-77
2021/11/09 04:00:29;;;;;;;1.67;1.30;;;;;;;3.15;100.00;100553.36;1767701;80;21062;-75
2021/11/09 04:05:17;;;;;;;3.58;1.40;;;;;;;3.19;100.00;100551.61;1738733;81;21036;-77
2021/11/09 04:10:30;;;;;;;2.65;1.60;;;;;;;3.20;100.00;100557.27;1700534;82;21107;-76
2021/11/09 04:18:42;;;;;;;2.55;1.70;;;;;;;3.20;100.00;100558.56;1732768;82;21035;-77
2021/11/09 04:20:56;;;;;;;3.02;1.67;;;;;;;3.15;100.00;100562.47;1708546;83;21143;-78
2021/11/09 04:23:49;;;;;;;4.78;1.70;;;;;;;3.13;100.00;100570.70;1711889;82;21141;-77
2021/11/09 04:26:21;;;;;;;1.70;1.47;;;;;;;3.06;100.00;100573.28;1709977;83;21078;-78
2021/11/09 05:08:14;;;;;;;2.70;1.90;;;;;;;2.48;100.00;100608.70;1721112;82;22117;-74
2021/11/09 05:10:45;;;;;;;3.35;2.20;;;;;;;2.62;100.00;100613.09;1741775;82;21077;-76
2021/11/09 05:13:12;;;;;;;8.20;2.00;;;;;;;2.68;100.00;100616.58;1742184;82;21068;-73
2021/11/09 05:15:39;;;;;;;2.52;2.00;;;;;;;2.68;100.00;100619.18;1741714;82;21559;-73
2021/11/09 05:18:05;;;;;;;5.08;2.30;;;;;;;2.71;100.00;100627.02;1740954;82;21096;-73
2021/11/09 05:20:32;;;;;;;2.40;2.15;;;;;;;2.74;100.00;100636.55;1706187;83;21031;-74
2021/11/09 05:22:59;;;;;;;3.77;2.30;;;;;;;2.78;100.00;100637.41;1730020;81;21100;-76
2021/11/09 05:25:26;;;;;;;3.65;2.20;;;;;;;2.79;100.00;100637.87;1742029;82;21380;-76
2021/11/09 05:27:53;;;;;;;3.30;2.25;;;;;;;2.81;100.00;100641.34;1736357;82;22024;-75
2021/11/09 05:30:21;;;;;;;3.02;2.20;;;;;;;2.85;100.00;100645.67;1736154;82;21053;-75
2021/11/09 05:32:49;;;;;;;4.72;1.98;;;;;;;2.88;100.00;100653.50;1729857;81;21051;-76
2021/11/09 05:35:15;;;;;;;2.40;1.98;;;;;;;2.86;100.00;100653.92;1743213;81;21116;-75
2021/11/09 05:37:45;;;;;;;4.30;2.17;;;;;;;2.88;100.00;100670.41;1750050;80;21593;-76
2021/11/09 05:40:11;;;;;;;4.20;2.20;;;;;;;2.89;100.00;100661.73;1768877;80;21052;-74
2021/11/09 05:42:38;;;;;;;6.03;2.20;;;;;;;2.89;100.00;100670.83;1748379;80;21081;-76
2021/11/09 05:45:06;;;;;;;8.60;1.90;;;;;;;2.90;100.00;100673.89;1745008;80;21516;-76
2021/11/09 05:47:34;;;;;;;3.00;2.10;;;;;;;2.91;100.00;100686.88;1749958;80;21058;-75
2021/11/09 05:50:00;;;;;;;5.45;1.82;;;;;;;2.93;100.00;100684.30;1752330;80;21089;-76
2021/11/09 05:52:26;;;;;;;2.17;1.60;;;;;;;2.94;100.00;100684.31;1747052;82;21138;-75
2021/11/09 05:54:53;;;;;;;3.85;1.90;;;;;;;2.93;99.96;100693.40;1734255;82;21022;-76
2021/11/09 05:57:19;;;;;;;5.28;2.22;;;;;;;2.92;99.82;100701.64;1745429;80;21344;-76
2021/11/09 05:59:46;;;;;;;4.37;1.90;;;;;;;2.89;99.01;100702.91;1747038;80;21041;-75
2021/11/09 06:02:13;;;;;;;2.92;1.90;;;;;;;2.88;99.07;100718.54;1750019;82;21049;-74
2021/11/09 06:04:40;;;;;;;2.00;1.67;;;;;;;2.87;98.75;100716.34;1749070;80;21191;-74
2021/11/09 06:07:06;;;;;;;2.27;1.52;;;;;;;2.85;99.38;100722.41;1746728;80;21069;-75
2021/11/09 06:09:34;;;;;;;2.02;1.80;;;;;;;2.87;99.12;100728.48;1772451;80;21112;-76
2021/11/09 06:12:00;;;;;;;4.65;2.00;;;;;;;2.88;98.94;100727.64;1769577;80;21599;-75
2021/11/09 06:14:27;;;;;;;2.80;1.72;;;;;;;2.86;98.21;100726.77;1745472;82;21061;-76
2021/11/09 06:16:54;;;;;;;2.58;1.90;;;;;;;2.85;98.35;100727.61;1714977;82;21167;-75
2021/11/09 06:19:21;;;;;;;3.95;1.90;;;;;;;2.87;98.91;100738.89;1741977;82;21060;-75
2021/11/09 06:21:47;;;;;;;2.02;1.65;;;;;;;2.86;98.28;100739.77;1741575;82;21039;-76
2021/11/09 06:24:15;;;;;;;3.02;1.70;;;;;;;2.87;98.24;100744.09;1744669;82;21590;-75
2021/11/09 06:26:42;;;;;;;2.52;2.00;;;;;;;2.83;97.65;100756.65;1750313;80;21115;-75
2021/11/09 06:29:08;;;;;;;2.15;1.72;;;;;;;2.81;98.51;100759.70;1749865;82;21468;-76
2021/11/09 06:31:35;;;;;;;3.00;2.10;;;;;;;2.83;99.14;100760.55;1749494;82;21352;-75
2021/11/09 06:34:01;;;;;;;3.77;1.90;;;;;;;2.81;98.09;100767.50;1749631;82;21041;-76
2021/11/09 06:36:28;;;;;;;3.90;1.65;;;;;;;2.80;98.27;100766.61;1749575;82;21708;-76
2021/11/09 06:38:55;;;;;;;2.20;1.92;;;;;;;2.79;98.94;100768.78;1745367;82;21500;-74
2021/11/09 06:41:21;;;;;;;4.55;1.98;;;;;;;2.81;98.75;100769.67;1749796;82;21104;-76
2021/11/09 06:43:48;;;;;;;2.67;1.80;;;;;;;2.81;98.39;100771.41;1745279;80;21108;-76
2021/11/09 06:46:14;;;;;;;2.20;1.72;;;;;;;2.81;98.52;100777.91;1750015;80;21065;-76
2021/11/09 06:48:42;;;;;;;2.67;1.62;;;;;;;2.81;98.19;100780.51;1749637;82;21889;-77
2021/11/09 06:51:08;;;;;;;2.87;1.60;;;;;;;2.81;98.19;100781.81;1749590;82;21140;-76
2021/11/09 06:53:35;;;;;;;2.77;1.80;;;;;;;2.79;98.15;100785.70;1747796;82;21478;-75
2021/11/09 06:56:01;;;;;;;3.25;2.12;;;;;;;2.79;97.77;100792.64;1748743;82;21112;-76
2021/11/09 06:58:28;;;;;;;2.83;1.60;;;;;;;2.77;97.24;100790.02;1746167;82;21068;-76
2021/11/09 07:00:55;;;;;;;4.35;1.70;;;;;;;2.78;97.15;100801.28;1744199;82;21325;-75
2021/11/09 07:03:21;;;;;;;2.58;1.62;;;;;;;2.78;97.30;100801.28;1738152;81;21089;-77
2021/11/09 07:05:49;;;;;;;2.33;1.30;;;;;;;2.81;96.43;100805.22;1749808;82;21544;-75
2021/11/09 07:08:15;;;;;;;2.37;1.50;;;;;;;2.82;95.67;100814.31;1747937;82;21063;-76
2021/11/09 07:10:44;;;;;;;3.33;1.40;;;;;;;2.82;96.44;100813.45;1749975;82;21060;-76
2021/11/09 07:13:11;;;;;;;2.90;1.70;;;;;;;2.81;95.48;100818.23;1748688;82;21088;-76
2021/11/09 07:15:39;;;;;;;2.92;1.60;;;;;;;2.80;94.67;100819.07;1746224;82;22191;-78
2021/11/09 07:18:09;;;;;;;2.50;1.32;;;;;;;2.77;93.86;100819.93;1720451;82;21089;-76
2021/11/09 07:20:37;;;;;;;2.47;1.35;;;;;;;2.77;94.15;100829.03;1749620;82;21104;-76
2021/11/09 07:23:05;;;;;;;1.37;1.20;;;;;;;2.78;93.66;100832.50;1746692;81;21088;-77
2021/11/09 07:25:32;;;;;;;1.50;1.30;;;;;;;2.78;93.68;100831.20;1746110;82;21020;-76
2021/11/09 07:28:00;;;;;;;1.75;1.45;;;;;;;2.79;94.14;100840.76;1736570;81;21089;-76
2021/11/09 07:30:40;;;;;;;2.92;1.60;;;;;;;2.81;94.06;100841.64;1740740;80;21156;-76
2021/11/09 07:32:55;;;;;;;2.58;1.45;;;;;;;2.82;94.21;100849.88;1742936;82;21053;-79
2021/11/09 07:35:21;;;;;;;3.37;1.30;;;;;;;2.77;93.84;100854.18;1742159;80;21065;-79
2021/11/09 07:37:49;;;;;;;3.35;1.47;;;;;;;2.73;93.43;100854.14;1740895;82;21026;-77
2021/11/09 07:40:16;;;;;;;2.15;1.35;;;;;;;2.73;92.66;100852.84;1741927;82;21052;-79
2021/11/09 07:42:47;;;;;;;2.22;1.40;;;;;;;2.76;92.88;100855.02;1741382;81;22090;-79
2021/11/09 07:45:18;;;;;;;;;;;;;;;2.79;93.18;100853.77;1737292;82;21033;-77
2021/11/09 07:47:45;;;;;;;3.10;1.55;;;;;;;2.82;93.01;100864.17;1739450;81;23104;-76
2021/11/09 07:50:12;;;;;;;2.20;1.50;;;;;;;2.83;92.69;100858.10;1736993;81;21089;-75
2021/11/09 07:52:39;;;;;;;2.10;1.77;;;;;;;2.87;91.33;100869.84;1736264;82;20999;-76
2021/11/09 07:55:12;;;;;;;4.45;1.50;;;;;;;2.91;92.26;100866.40;1707946;82;22482;-76
2021/11/09 07:57:44;;;;;;;2.80;1.40;;;;;;;2.91;90.84;100857.73;1740476;82;21013;-73
2021/11/09 08:00:48;;;;;;;2.35;1.60;;;;;;;3.01;90.40;100869.92;1741990;82;21556;-75
2021/11/09 08:02:58;;;;;;;2.00;1.57;;;;;;;3.07;89.29;100875.16;1736839;82;21056;-75
2021/11/09 08:05:13;;;;;;;2.30;1.45;;;;;;;3.09;89.79;100877.79;1740193;82;21057;-75
2021/11/09 08:07:57;;;;;;;2.08;1.30;;;;;;;3.11;89.09;100885.18;1742221;82;21097;-75
2021/11/09 08:10:20;;;;;;;2.40;1.45;;;;;;;3.14;89.58;100892.55;1741667;82;21068;-75
2021/11/09 08:12:46;;;;;;;2.12;1.37;;;;;;;3.19;88.95;100891.28;1742357;82;21077;-75
2021/11/09 08:15:14;;;;;;;8.45;1.55;;;;;;;3.20;88.12;100896.05;1742307;82;21033;-75
2021/11/09 08:17:41;;;;;;;2.15;1.40;;;;;;;3.15;88.47;100902.13;1739892;82;21560;-76
2021/11/09 08:20:08;;;;;;;3.52;1.30;;;;;;;3.18;87.99;100908.21;1739596;82;21490;-76
2021/11/09 08:22:35;;;;;;;4.58;1.52;;;;;;;3.15;87.91;100912.53;1742118;82;21017;-75
2021/11/09 08:25:04;;;;;;;1.92;1.30;;;;;;;3.14;86.92;100917.28;1741979;81;21092;-75
2021/11/09 08:27:32;;;;;;;1.85;1.30;;;;;;;3.14;86.65;100916.42;1742105;82;21058;-75
2021/11/09 08:29:59;;;;;;;3.33;1.37;;;;;;;3.17;85.89;100927.27;1740454;82;21100;-76
2021/11/09 08:32:26;;;;;;;2.08;1.40;;;;;;;3.19;86.02;100930.77;1738201;82;21112;-75
2021/11/09 08:34:53;;;;;;;1.82;1.20;;;;;;;3.17;84.08;100931.18;1733591;82;21582;-76
2021/11/09 08:37:21;;;;;;;1.45;1.00;;;;;;;3.11;82.94;100937.23;1741610;82;21086;-75
2021/11/09 08:39:47;;;;;;;3.30;1.20;;;;;;;3.07;82.78;100940.23;1740823;82;21105;-75
2021/11/09 08:44:50;;;;;;;1.75;1.20;;;;;;;3.11;82.83;100945.04;1733749;82;21617;-75
2021/11/09 08:47:19;;;;;;;1.17;1.07;;;;;;;3.12;82.16;100946.33;1739841;82;21072;-75
2021/11/09 08:49:44;;;;;;;1.02;0.80;;;;;;;3.14;82.57;100949.81;1740785;82;21081;-74
2021/11/09 08:52:13;;;;;;;2.17;1.17;;;;;;;3.17;81.48;100955.91;1735772;82;21569;-75
2021/11/09 08:55:11;;;;;;;3.60;1.72;;;;;;;3.19;81.44;100959.39;1738079;82;21065;-75
2021/11/09 09:05:27;;;;;;;1.70;1.10;;;;;;;3.12;79.36;100968.45;1738884;82;21088;-75
2021/11/09 09:07:53;;;;;;;1.95;0.95;;;;;;;3.14;78.26;100969.34;1741496;82;21042;-74
2021/11/09 09:10:21;;;;;;;1.65;0.90;;;;;;;3.16;77.98;100983.67;1737952;82;21652;-75
2021/11/09 09:12:49;;;;;;;4.08;1.30;;;;;;;3.19;77.24;100980.22;1743894;81;21299;-74
2021/11/09 09:15:17;;;;;;;4.70;1.10;;;;;;;3.21;75.83;100987.17;1741934;81;21041;-71
2021/11/09 09:17:45;;;;;;;5.97;1.42;;;;;;;3.25;76.34;100986.34;1743681;81;21058;-74
2021/11/09 09:20:26;;;;;;;2.08;1.00;;;;;;;3.32;75.92;100994.62;1731877;81;21327;-79
2021/11/09 09:23:03;;;;;;;5.20;1.12;;;;;;;3.48;76.08;101002.11;1740024;81;21167;-81
2021/11/09 09:25:44;;;;;;;1.15;0.88;;;;;;;3.65;73.87;101001.33;1742071;82;21000;-81
2021/11/09 09:28:28;;;;;;;2.02;1.20;;;;;;;3.77;76.14;101001.38;1742171;82;21000;-80
2021/11/09 09:55:19;;;;;;;2.60;0.93;;;;;;;4.93;66.29;101031.26;1741994;81;21085;-82
2021/11/09 09:57:42;;;;;;;1.60;0.90;;;;;;;5.65;64.25;101018.98;1735915;81;21105;-83
2021/11/09 10:00:11;;;;;;;1.30;0.90;;;;;;;6.26;62.23;101017.06;1740980;81;21540;-83
2021/11/09 10:02:52;;;;;;;2.95;1.05;;;;;;;6.55;63.85;101014.25;1742717;82;21109;-78
2021/11/09 10:05:20;;;;;;;1.92;1.07;;;;;;;6.62;60.42;101022.48;1739856;81;21089;-79
2021/11/09 10:07:54;;;;;;;2.40;1.00;;;;;;;6.65;61.42;101031.66;1747400;81;21089;-80
2021/11/09 10:10:29;;;;;;;1.00;0.90;;;;;;;6.56;58.39;101030.85;1767652;81;21042;-82
2021/11/09 10:13:09;;;;;;;1.95;1.00;;;;;;;6.25;58.65;101049.31;1767431;80;22218;-81
2021/11/09 10:15:42;;;;;;;1.72;0.98;;;;;;;6.21;58.06;101044.95;1757535;81;21442;-82
2021/11/09 10:18:15;;;;;;;1.32;0.80;;;;;;;6.72;56.74;101046.88;1737671;82;21155;-83
2021/11/09 10:20:49;;;;;;;3.65;0.90;;;;;;;7.27;57.71;101045.16;1736813;81;21090;-81
2021/11/09 10:23:20;;;;;;;1.25;0.90;;;;;;;7.64;55.91;101036.94;1739058;82;21302;-84
2021/11/09 10:25:48;;;;;;;1.22;0.80;;;;;;;7.74;57.01;101042.94;1745853;81;22186;-83
2021/11/09 10:28:18;;;;;;;3.27;0.80;;;;;;;7.63;53.05;101041.73;1746546;81;21097;-83
2021/11/09 10:30:54;;;;;;;2.55;0.82;;;;;;;7.38;54.06;101044.17;1737650;82;21061;-85
2021/11/09 10:33:24;;;;;;;1.30;0.70;;;;;;;7.21;55.44;101046.50;1741965;82;21052;-83
2021/11/09 10:35:55;;;;;;;1.70;0.95;;;;;;;7.24;52.80;101045.16;1741648;80;21403;-82
2021/11/09 10:38:31;;;;;;;0.95;0.80;;;;;;;7.36;53.91;101044.17;1741005;82;21509;-83
2021/11/09 10:41:00;;;;;;;2.87;0.85;;;;;;;7.41;52.37;101041.52;1741823;82;21921;-83
2021/11/09 10:43:27;;;;;;;4.15;0.90;;;;;;;7.45;51.21;101049.78;1738430;81;21100;-83
2021/11/09 10:45:56;;;;;;;1.00;0.85;;;;;;;7.18;51.85;101037.78;1736229;81;21112;-83
2021/11/09 10:48:23;;;;;;;1.82;0.90;;;;;;;6.93;53.53;101044.11;1735000;82;21564;-84
2021/11/09 10:50:59;;;;;;;1.20;0.80;;;;;;;6.80;53.33;101056.84;1739449;82;21093;-83
2021/11/09 10:53:35;;;;;;;1.37;0.80;;;;;;;6.54;53.53;101065.31;1737931;82;21093;-83
2021/11/09 11:04:40;;;;;;;1.45;1.00;;;;;;;7.69;48.46;101056.10;1736010;81;21104;-84
2021/11/09 11:07:10;;;;;;;5.62;2.02;;;;;;;8.06;47.59;101057.00;1744018;81;22511;-83
2021/11/09 11:09:38;;;;;;;4.83;2.58;;;;;;;8.27;48.89;101056.31;1727457;82;21480;-83
2021/11/09 11:12:14;;;;;;;5.97;2.17;;;;;;;8.17;46.85;101055.57;1706731;84;21024;-83
2021/11/09 11:14:42;;;;;;;3.50;1.40;;;;;;;7.98;47.11;101065.39;1713981;82;21335;-84
2021/11/09 11:17:11;;;;;;;3.47;1.17;;;;;;;7.66;47.18;101070.56;1737316;82;21529;-82
2021/11/09 11:19:53;;;;;;;1.65;1.20;;;;;;;7.30;47.97;101070.45;1737813;82;21784;-82
2021/11/09 11:22:22;;;;;;;2.83;0.90;;;;;;;7.09;48.96;101084.59;1741205;81;21051;-83
2021/11/09 11:24:51;;;;;;;1.55;0.80;;;;;;;6.76;48.79;101086.54;1733934;82;21070;-84
2021/11/09 11:27:18;;;;;;;7.40;1.10;;;;;;;6.48;48.49;101086.69;1737390;82;21026;-81
2021/11/09 11:29:45;;;;;;;2.10;1.00;;;;;;;6.28;50.11;101088.52;1735965;81;21030;-81
2021/11/09 11:32:15;;;;;;;4.28;1.05;;;;;;;6.25;50.06;101092.47;1744240;81;21535;-83
2021/11/09 11:34:41;;;;;;;8.93;1.98;;;;;;;6.80;49.12;101085.65;1727492;82;21605;-84
2021/11/09 11:37:18;;;;;;;1.27;0.90;;;;;;;7.15;47.69;101085.84;1736617;82;21084;-84
2021/11/09 11:39:45;;;;;;;3.90;1.00;;;;;;;7.16;48.07;101095.91;1752823;81;21006;-85
2021/11/09 11:42:17;;;;;;;2.12;1.10;;;;;;;6.96;49.96;101098.66;1752516;82;21104;-84
2021/11/09 11:44:44;;;;;;;;;;;;;;;6.69;50.03;101100.55;1755014;81;21126;-82
2021/11/09 11:47:16;;;;;;;2.58;1.40;;;;;;;6.38;52.45;101103.77;1734824;81;20233;-84
2021/11/09 11:49:48;;;;;;;2.00;1.40;;;;;;;6.12;52.22;101107.77;1718371;83;21075;-86
2021/11/09 11:52:26;;;;;;;0.90;0.72;;;;;;;5.87;52.36;101113.05;1717447;83;21054;-84
2021/11/09 11:55:06;;;;;;;2.22;1.12;;;;;;;5.64;56.94;101117.86;1718135;83;21084;-84
2021/11/09 11:58:08;;;;;;;3.80;1.27;;;;;;;5.44;53.67;101113.08;1718471;83;22220;-84
2021/11/09 12:00:48;;;;;;;3.52;1.30;;;;;;;5.26;55.08;101126.56;1718195;83;21323;-84
2021/11/09 12:03:28;;;;;;;1.55;1.20;;;;;;;5.10;55.37;101127.42;1718450;82;21059;-84
2021/11/09 12:05:58;;;;;;;1.70;1.00;;;;;;;5.02;55.59;101128.72;1718761;82;21178;-84
2021/11/09 12:08:40;;;;;;;2.35;0.90;;;;;;;4.96;58.30;101139.14;1718613;81;21047;-84
2021/11/09 12:11:26;;;;;;;3.27;1.40;;;;;;;4.91;59.27;101142.63;1714934;82;21124;-83
2021/11/09 12:13:57;;;;;;;2.12;1.10;;;;;;;4.75;58.34;101142.58;1728742;81;21744;-84
2021/11/09 12:16:55;;;;;;;1.02;0.88;;;;;;;4.60;56.35;101152.95;1723902;82;21004;-84
2021/11/09 12:19:47;;;;;;;6.08;1.45;;;;;;;4.50;57.54;101147.27;1739164;81;21025;-84
2021/11/09 12:22:18;;;;;;;5.83;1.80;;;;;;;4.47;57.98;101148.57;1728822;81;21121;-84
2021/11/09 12:24:58;;;;;;;5.37;2.80;;;;;;;4.49;60.10;101158.58;1720281;82;22727;-84
2021/11/09 12:27:52;;;;;;;4.22;2.27;;;;;;;4.45;58.37;101168.55;1728498;82;21106;-80
2021/11/09 12:30:53;;;;;;;6.92;1.80;;;;;;;4.21;57.76;101168.87;1733084;82;21541;-80
2021/11/09 12:33:27;;;;;;;9.60;4.08;;;;;;;4.01;58.56;101173.09;1745823;81;21579;-76
2021/11/09 12:36:10;;;;;;;4.92;1.87;;;;;;;3.91;58.84;101174.33;1750244;82;21037;-83
2021/11/09 12:38:44;;;;;;;5.97;5.30;;;;;;;3.80;60.73;101182.50;1750430;81;21147;-74
2021/11/09 12:41:18;;;;;;;3.55;2.30;;;;;;;3.76;61.32;101190.70;1750415;82;21049;-72
2021/11/09 12:43:57;;;;;;;6.55;2.52;;;;;;;3.71;61.64;101199.36;1750247;81;21006;-75
2021/11/09 12:46:37;;;;;;;1.92;1.42;;;;;;;3.67;62.00;101200.19;1732284;82;21605;-73
2021/11/09 12:49:09;;;;;;;;;;;;;;;3.55;61.20;101199.66;1720404;83;21578;-76
2021/11/09 12:51:49;;;;;;;6.60;1.80;;;;;;;3.46;62.39;101208.26;1718037;83;21167;-70
2021/11/09 12:54:28;;;;;;;3.33;1.75;;;;;;;3.38;61.90;101217.71;1722593;82;21117;-78
2021/11/09 12:57:02;;;;;;;4.85;1.20;;;;;;;3.35;61.99;101211.19;1732129;82;21109;-77
2021/11/09 12:59:41;;;;;;;1.65;1.45;;;;;;;3.28;62.87;101222.39;1731247;82;21085;-70
2021/11/09 13:09:49;;;;;;;7.10;4.62;;;;;;;3.08;63.69;101243.89;1728780;82;21481;-71
2021/11/09 13:12:25;;;;;;;3.50;1.87;;;;;;;3.00;62.61;101250.73;1730924;82;21137;-80
2021/11/09 13:15:09;;;;;;;3.00;2.40;;;;;;;2.95;63.08;101260.21;1733785;81;21190;-75
2021/11/09 13:17:47;;;;;;;1.42;1.25;;;;;;;2.95;63.68;101262.81;1722715;82;21529;-74
2021/11/09 13:23:08;;;;;;;10.20;2.30;;;;;;;2.90;64.53;101267.09;1736130;81;21110;-88
2021/11/09 13:25:41;;;;;;;14.00;2.30;;;;;;;2.86;64.88;101262.70;1742443;81;21074;-83
2021/11/09 13:28:28;;;;;;;4.03;1.30;;;;;;;2.81;63.32;101264.37;1719153;81;21090;-79
2021/11/09 13:31:00;;;;;;;5.33;2.10;;;;;;;2.73;65.75;101272.05;1724402;81;21058;-77
2021/11/09 13:33:27;;;;;;;2.45;1.72;;;;;;;2.65;63.71;101278.47;1717633;82;21083;-76
2021/11/09 13:35:54;;;;;;;10.58;1.60;;;;;;;2.58;63.45;101281.84;1719253;81;21601;-76
2021/11/09 13:38:36;;;;;;;6.22;3.98;;;;;;;2.54;64.34;101290.45;1732717;81;21744;-76
2021/11/09 13:41:12;;;;;;;11.95;4.65;;;;;;;2.46;63.70;101289.05;1727701;82;21535;-76
2021/11/09 13:43:46;;;;;;;5.12;3.85;;;;;;;2.43;64.32;101303.28;1727532;82;21943;-76
2021/11/09 13:46:17;;;;;;;5.50;2.80;;;;;;;2.38;64.79;101317.08;1733696;82;21041;-76
2021/11/09 13:48:51;;;;;;;4.45;2.22;;;;;;;2.35;66.29;101326.10;1715897;82;21054;-77
2021/11/09 13:51:27;;;;;;;5.05;3.02;;;;;;;2.31;64.34;101326.06;1727046;81;21076;-80
2021/11/09 13:54:01;;;;;;;3.72;1.90;;;;;;;2.26;64.53;101332.05;1720043;81;21095;-83
2021/11/09 13:56:28;;;;;;;4.20;3.30;;;;;;;2.20;65.81;101335.41;1732885;81;21124;-83
2021/11/09 13:59:08;;;;;;;3.17;2.40;;;;;;;2.13;64.86;101341.36;1728269;82;21540;-82
2021/11/09 14:10:42;;;;;;;3.77;2.33;;;;;;;1.98;69.63;101348.87;1679541;83;21858;-81
2021/11/09 14:16:03;;;;;;;6.35;3.15;;;;;;;1.87;66.81;101375.55;1728410;82;21049;-79